sensor_id;sensor_type;location;lat;lon;timestamp;P1;durP1;ratioP1;P2;durP2;ratioP2
16254;SDS011;8235;52.198;9.904;2023-04-07T00:01:21;12.13;;;9.80;;
16254;SDS011;8235;52.198;9.904;2023-04-07T00:03:47;15.57;;;10.40;;
16254;SDS011;8235;52.198;9.904;2023-04-07T00:06:14;10.93;;;8.80;;
16254;SDS011;8235;52.198;9.904;2023-04-07T00:08:41;14.87;;;9.30;;
16254;SDS011;8235;52.198;9.904;2023-04-07T00:11:08;13.07;;;9.27;;
16254;SDS011;8235;52.198;9.904;2023-04-07T00:13:35;13.17;;;9.70;;
16254;SDS011;8235;52.198;9.904;2023-04-07T00:16:01;13.83;;;9.63;;
16254;SDS011;8235;52.198;9.904;2023-04-07T00:18:28;13.60;;;9.67;;
16254;SDS011;8235;52.198;9.904;2023-04-07T00:20:54;12.60;;;9.83;;
16254;SDS011;8235;52.198;9.904;2023-04-07T00:23:21;15.40;;;9.63;;
16254;SDS011;8235;52.198;9.904;2023-04-07T00:25:48;11.33;;;9.40;;
16254;SDS011;8235;52.198;9.904;2023-04-07T00:28:15;13.13;;;8.87;;
16254;SDS011;8235;52.198;9.904;2023-04-07T00:30:41;12.80;;;9.50;;
16254;SDS011;8235;52.198;9.904;2023-04-07T00:33:08;11.97;;;9.43;;
16254;SDS011;8235;52.198;9.904;2023-04-07T00:35:34;15.53;;;10.37;;
16254;SDS011;8235;52.198;9.904;2023-04-07T00:38:01;13.57;;;10.37;;
16254;SDS011;8235;52.198;9.904;2023-04-07T00:40:27;13.90;;;10.17;;
16254;SDS011;8235;52.198;9.904;2023-04-07T00:42:55;15.17;;;11.10;;
16254;SDS011;8235;52.198;9.904;2023-04-07T00:45:22;13.67;;;10.53;;
16254;SDS011;8235;52.198;9.904;2023-04-07T00:47:48;13.67;;;10.40;;
16254;SDS011;8235;52.198;9.904;2023-04-07T00:50:15;15.60;;;10.50;;
16254;SDS011;8235;52.198;9.904;2023-04-07T00:52:41;16.13;;;11.10;;
16254;SDS011;8235;52.198;9.904;2023-04-07T00:55:08;13.90;;;10.33;;
16254;SDS011;8235;52.198;9.904;2023-04-07T00:57:34;12.83;;;10.03;;
16254;SDS011;8235;52.198;9.904;2023-04-07T01:00:03;12.33;;;10.03;;
16254;SDS011;8235;52.198;9.904;2023-04-07T01:02:32;16.10;;;10.50;;
16254;SDS011;8235;52.198;9.904;2023-04-07T01:05:06;12.60;;;9.87;;
16254;SDS011;8235;52.198;9.904;2023-04-07T01:07:38;13.43;;;10.00;;
16254;SDS011;8235;52.198;9.904;2023-04-07T01:10:16;13.37;;;10.63;;
16254;SDS011;8235;52.198;9.904;2023-04-07T01:12:51;13.40;;;10.33;;
16254;SDS011;8235;52.198;9.904;2023-04-07T01:15:23;13.37;;;9.63;;
16254;SDS011;8235;52.198;9.904;2023-04-07T01:20:38;13.93;;;10.97;;
16254;SDS011;8235;52.198;9.904;2023-04-07T01:23:07;13.67;;;10.27;;
16254;SDS011;8235;52.198;9.904;2023-04-07T01:25:40;12.90;;;9.43;;
16254;SDS011;8235;52.198;9.904;2023-04-07T01:28:33;12.77;;;9.43;;
16254;SDS011;8235;52.198;9.904;2023-04-07T01:31:11;13.87;;;9.83;;
16254;SDS011;8235;52.198;9.904;2023-04-07T01:33:38;11.97;;;9.80;;
16254;SDS011;8235;52.198;9.904;2023-04-07T01:36:08;10.73;;;8.93;;
16254;SDS011;8235;52.198;9.904;2023-04-07T01:38:37;10.27;;;9.13;;
16254;SDS011;8235;52.198;9.904;2023-04-07T01:41:04;11.20;;;8.77;;
16254;SDS011;8235;52.198;9.904;2023-04-07T01:43:33;13.40;;;9.43;;
16254;SDS011;8235;52.198;9.904;2023-04-07T01:46:01;10.87;;;8.30;;
16254;SDS011;8235;52.198;9.904;2023-04-07T01:48:30;16.13;;;9.53;;
16254;SDS011;8235;52.198;9.904;2023-04-07T01:50:59;10.30;;;8.77;;
16254;SDS011;8235;52.198;9.904;2023-04-07T01:53:26;10.93;;;9.33;;
16254;SDS011;8235;52.198;9.904;2023-04-07T01:55:53;12.90;;;9.93;;
16254;SDS011;8235;52.198;9.904;2023-04-07T01:58:20;13.73;;;9.40;;
16254;SDS011;8235;52.198;9.904;2023-04-07T02:00:47;13.70;;;10.00;;
16254;SDS011;8235;52.198;9.904;2023-04-07T02:03:17;13.73;;;9.87;;
16254;SDS011;8235;52.198;9.904;2023-04-07T02:05:49;13.60;;;9.97;;
16254;SDS011;8235;52.198;9.904;2023-04-07T02:08:23;13.40;;;10.27;;
16254;SDS011;8235;52.198;9.904;2023-04-07T02:10:53;13.47;;;10.13;;
16254;SDS011;8235;52.198;9.904;2023-04-07T02:13:22;14.70;;;9.90;;
16254;SDS011;8235;52.198;9.904;2023-04-07T02:15:49;13.40;;;10.60;;
16254;SDS011;8235;52.198;9.904;2023-04-07T02:18:16;14.40;;;11.00;;
16254;SDS011;8235;52.198;9.904;2023-04-07T02:20:45;11.60;;;10.30;;
16254;SDS011;8235;52.198;9.904;2023-04-07T02:23:15;12.00;;;10.17;;
16254;SDS011;8235;52.198;9.904;2023-04-07T02:25:41;14.00;;;10.20;;
16254;SDS011;8235;52.198;9.904;2023-04-07T02:28:07;12.97;;;10.33;;
16254;SDS011;8235;52.198;9.904;2023-04-07T02:30:34;12.30;;;10.77;;
16254;SDS011;8235;52.198;9.904;2023-04-07T02:33:01;16.17;;;11.07;;
16254;SDS011;8235;52.198;9.904;2023-04-07T02:35:27;13.00;;;10.13;;
16254;SDS011;8235;52.198;9.904;2023-04-07T02:37:54;15.47;;;10.17;;
16254;SDS011;8235;52.198;9.904;2023-04-07T02:40:21;12.00;;;9.47;;
16254;SDS011;8235;52.198;9.904;2023-04-07T02:42:48;13.50;;;9.97;;
16254;SDS011;8235;52.198;9.904;2023-04-07T02:45:14;12.57;;;9.73;;
16254;SDS011;8235;52.198;9.904;2023-04-07T02:47:41;13.60;;;9.30;;
16254;SDS011;8235;52.198;9.904;2023-04-07T02:50:07;12.47;;;9.53;;
16254;SDS011;8235;52.198;9.904;2023-04-07T02:52:34;12.90;;;10.33;;
16254;SDS011;8235;52.198;9.904;2023-04-07T02:55:01;14.97;;;11.13;;
16254;SDS011;8235;52.198;9.904;2023-04-07T02:57:29;13.20;;;9.97;;
16254;SDS011;8235;52.198;9.904;2023-04-07T02:59:55;14.63;;;10.30;;
16254;SDS011;8235;52.198;9.904;2023-04-07T03:02:22;13.13;;;9.70;;
16254;SDS011;8235;52.198;9.904;2023-04-07T03:04:49;14.33;;;10.20;;
16254;SDS011;8235;52.198;9.904;2023-04-07T03:07:16;13.63;;;10.43;;
16254;SDS011;8235;52.198;9.904;2023-04-07T03:09:42;15.53;;;11.17;;
16254;SDS011;8235;52.198;9.904;2023-04-07T03:12:09;13.70;;;9.87;;
16254;SDS011;8235;52.198;9.904;2023-04-07T03:14:37;13.60;;;9.83;;
16254;SDS011;8235;52.198;9.904;2023-04-07T03:17:03;11.40;;;9.63;;
16254;SDS011;8235;52.198;9.904;2023-04-07T03:19:30;14.00;;;10.30;;
16254;SDS011;8235;52.198;9.904;2023-04-07T03:21:56;14.03;;;10.57;;
16254;SDS011;8235;52.198;9.904;2023-04-07T03:24:23;13.90;;;11.17;;
16254;SDS011;8235;52.198;9.904;2023-04-07T03:26:49;13.37;;;10.20;;
16254;SDS011;8235;52.198;9.904;2023-04-07T03:29:16;15.20;;;11.27;;
16254;SDS011;8235;52.198;9.904;2023-04-07T03:31:44;16.13;;;11.83;;
16254;SDS011;8235;52.198;9.904;2023-04-07T03:34:10;15.17;;;11.20;;
16254;SDS011;8235;52.198;9.904;2023-04-07T03:36:37;13.70;;;10.37;;
16254;SDS011;8235;52.198;9.904;2023-04-07T03:39:03;16.23;;;11.03;;
16254;SDS011;8235;52.198;9.904;2023-04-07T03:41:30;16.47;;;11.57;;
16254;SDS011;8235;52.198;9.904;2023-04-07T03:43:57;15.17;;;11.57;;
16254;SDS011;8235;52.198;9.904;2023-04-07T03:46:23;15.40;;;10.90;;
16254;SDS011;8235;52.198;9.904;2023-04-07T03:48:52;14.83;;;11.53;;
16254;SDS011;8235;52.198;9.904;2023-04-07T03:51:19;16.33;;;11.87;;
16254;SDS011;8235;52.198;9.904;2023-04-07T03:53:46;14.57;;;11.57;;
16254;SDS011;8235;52.198;9.904;2023-04-07T03:56:12;18.53;;;10.40;;
16254;SDS011;8235;52.198;9.904;2023-04-07T03:58:39;14.73;;;11.17;;
16254;SDS011;8235;52.198;9.904;2023-04-07T04:01:06;16.47;;;11.73;;
16254;SDS011;8235;52.198;9.904;2023-04-07T04:03:33;15.30;;;11.37;;
16254;SDS011;8235;52.198;9.904;2023-04-07T04:06:01;14.20;;;11.10;;
16254;SDS011;8235;52.198;9.904;2023-04-07T04:08:28;14.50;;;12.03;;
16254;SDS011;8235;52.198;9.904;2023-04-07T04:10:56;14.93;;;12.03;;
16254;SDS011;8235;52.198;9.904;2023-04-07T04:13:22;14.50;;;11.23;;
16254;SDS011;8235;52.198;9.904;2023-04-07T04:15:49;15.27;;;11.80;;
16254;SDS011;8235;52.198;9.904;2023-04-07T04:18:16;16.17;;;11.80;;
16254;SDS011;8235;52.198;9.904;2023-04-07T04:20:42;15.63;;;12.17;;
16254;SDS011;8235;52.198;9.904;2023-04-07T04:23:10;16.47;;;12.03;;
16254;SDS011;8235;52.198;9.904;2023-04-07T04:25:37;20.80;;;13.30;;
16254;SDS011;8235;52.198;9.904;2023-04-07T04:28:04;17.47;;;12.40;;
16254;SDS011;8235;52.198;9.904;2023-04-07T04:30:31;17.03;;;12.40;;
16254;SDS011;8235;52.198;9.904;2023-04-07T04:32:57;19.67;;;12.67;;
16254;SDS011;8235;52.198;9.904;2023-04-07T04:35:24;17.97;;;13.27;;
16254;SDS011;8235;52.198;9.904;2023-04-07T04:37:51;15.83;;;12.53;;
16254;SDS011;8235;52.198;9.904;2023-04-07T04:40:19;15.40;;;12.33;;
16254;SDS011;8235;52.198;9.904;2023-04-07T04:42:45;15.73;;;13.00;;
16254;SDS011;8235;52.198;9.904;2023-04-07T04:45:12;17.33;;;13.17;;
16254;SDS011;8235;52.198;9.904;2023-04-07T04:47:38;18.63;;;13.13;;
16254;SDS011;8235;52.198;9.904;2023-04-07T04:50:05;21.37;;;12.80;;
16254;SDS011;8235;52.198;9.904;2023-04-07T04:52:32;18.03;;;12.90;;
16254;SDS011;8235;52.198;9.904;2023-04-07T04:54:59;16.80;;;13.37;;
16254;SDS011;8235;52.198;9.904;2023-04-07T04:57:27;21.67;;;13.30;;
16254;SDS011;8235;52.198;9.904;2023-04-07T04:59:53;17.77;;;12.67;;
16254;SDS011;8235;52.198;9.904;2023-04-07T05:02:20;17.30;;;13.23;;
16254;SDS011;8235;52.198;9.904;2023-04-07T05:04:46;16.37;;;13.03;;
16254;SDS011;8235;52.198;9.904;2023-04-07T05:07:13;16.40;;;13.03;;
16254;SDS011;8235;52.198;9.904;2023-04-07T05:09:39;15.70;;;13.17;;
16254;SDS011;8235;52.198;9.904;2023-04-07T05:12:06;19.10;;;14.23;;
16254;SDS011;8235;52.198;9.904;2023-04-07T05:14:34;16.80;;;13.13;;
16254;SDS011;8235;52.198;9.904;2023-04-07T05:17:00;15.73;;;11.87;;
16254;SDS011;8235;52.198;9.904;2023-04-07T05:19:26;17.17;;;13.23;;
16254;SDS011;8235;52.198;9.904;2023-04-07T05:21:53;18.50;;;13.03;;
16254;SDS011;8235;52.198;9.904;2023-04-07T05:24:20;23.17;;;14.40;;
16254;SDS011;8235;52.198;9.904;2023-04-07T05:26:46;20.30;;;13.33;;
16254;SDS011;8235;52.198;9.904;2023-04-07T05:29:13;21.67;;;13.93;;
16254;SDS011;8235;52.198;9.904;2023-04-07T05:31:40;19.00;;;13.60;;
16254;SDS011;8235;52.198;9.904;2023-04-07T05:34:07;25.20;;;13.23;;
16254;SDS011;8235;52.198;9.904;2023-04-07T05:36:34;17.83;;;14.13;;
16254;SDS011;8235;52.198;9.904;2023-04-07T05:39:00;17.77;;;13.40;;
16254;SDS011;8235;52.198;9.904;2023-04-07T05:41:27;17.20;;;13.03;;
16254;SDS011;8235;52.198;9.904;2023-04-07T05:43:53;17.50;;;13.77;;
16254;SDS011;8235;52.198;9.904;2023-04-07T05:46:20;18.13;;;13.60;;
16254;SDS011;8235;52.198;9.904;2023-04-07T05:48:47;19.97;;;15.07;;
16254;SDS011;8235;52.198;9.904;2023-04-07T05:51:14;16.83;;;13.77;;
16254;SDS011;8235;52.198;9.904;2023-04-07T05:53:40;17.27;;;14.70;;
16254;SDS011;8235;52.198;9.904;2023-04-07T05:56:07;17.13;;;13.47;;
16254;SDS011;8235;52.198;9.904;2023-04-07T05:58:33;18.27;;;13.43;;
16254;SDS011;8235;52.198;9.904;2023-04-07T06:01:00;18.03;;;14.13;;
16254;SDS011;8235;52.198;9.904;2023-04-07T06:03:26;18.03;;;13.83;;
16254;SDS011;8235;52.198;9.904;2023-04-07T06:05:54;18.13;;;14.07;;
16254;SDS011;8235;52.198;9.904;2023-04-07T06:08:22;19.53;;;14.53;;
16254;SDS011;8235;52.198;9.904;2023-04-07T06:10:48;19.73;;;14.27;;
16254;SDS011;8235;52.198;9.904;2023-04-07T06:13:15;14.70;;;12.90;;
16254;SDS011;8235;52.198;9.904;2023-04-07T06:15:41;16.90;;;13.37;;
16254;SDS011;8235;52.198;9.904;2023-04-07T06:18:08;16.53;;;13.60;;
16254;SDS011;8235;52.198;9.904;2023-04-07T06:20:34;21.07;;;13.27;;
16254;SDS011;8235;52.198;9.904;2023-04-07T06:23:02;16.20;;;13.80;;
16254;SDS011;8235;52.198;9.904;2023-04-07T06:25:29;17.03;;;14.33;;
16254;SDS011;8235;52.198;9.904;2023-04-07T06:27:55;16.83;;;13.70;;
16254;SDS011;8235;52.198;9.904;2023-04-07T06:30:22;17.37;;;14.50;;
16254;SDS011;8235;52.198;9.904;2023-04-07T06:32:48;21.10;;;15.20;;
16254;SDS011;8235;52.198;9.904;2023-04-07T06:35:15;18.57;;;14.60;;
16254;SDS011;8235;52.198;9.904;2023-04-07T06:37:41;19.33;;;14.33;;
16254;SDS011;8235;52.198;9.904;2023-04-07T06:40:09;21.27;;;15.40;;
16254;SDS011;8235;52.198;9.904;2023-04-07T06:42:36;17.43;;;13.93;;
16254;SDS011;8235;52.198;9.904;2023-04-07T06:45:02;16.57;;;14.13;;
16254;SDS011;8235;52.198;9.904;2023-04-07T06:47:29;17.17;;;14.33;;
16254;SDS011;8235;52.198;9.904;2023-04-07T06:49:56;17.97;;;14.30;;
16254;SDS011;8235;52.198;9.904;2023-04-07T06:52:22;18.17;;;14.70;;
16254;SDS011;8235;52.198;9.904;2023-04-07T06:54:49;16.97;;;15.23;;
16254;SDS011;8235;52.198;9.904;2023-04-07T06:57:17;18.43;;;15.33;;
16254;SDS011;8235;52.198;9.904;2023-04-07T06:59:43;19.90;;;15.93;;
16254;SDS011;8235;52.198;9.904;2023-04-07T07:02:10;18.63;;;14.90;;
16254;SDS011;8235;52.198;9.904;2023-04-07T07:04:36;17.73;;;14.97;;
16254;SDS011;8235;52.198;9.904;2023-04-07T07:07:03;19.97;;;15.17;;
16254;SDS011;8235;52.198;9.904;2023-04-07T07:09:29;19.23;;;14.37;;
16254;SDS011;8235;52.198;9.904;2023-04-07T07:11:55;16.43;;;14.13;;
16254;SDS011;8235;52.198;9.904;2023-04-07T07:14:23;14.67;;;13.03;;
16254;SDS011;8235;52.198;9.904;2023-04-07T07:16:50;17.13;;;14.23;;
16254;SDS011;8235;52.198;9.904;2023-04-07T07:19:16;17.33;;;14.47;;
16254;SDS011;8235;52.198;9.904;2023-04-07T07:21:43;18.23;;;15.30;;
16254;SDS011;8235;52.198;9.904;2023-04-07T07:24:09;18.80;;;14.70;;
16254;SDS011;8235;52.198;9.904;2023-04-07T07:26:36;16.90;;;15.10;;
16254;SDS011;8235;52.198;9.904;2023-04-07T07:29:02;17.03;;;13.90;;
16254;SDS011;8235;52.198;9.904;2023-04-07T07:31:30;17.33;;;14.90;;
16254;SDS011;8235;52.198;9.904;2023-04-07T07:33:56;15.60;;;14.00;;
16254;SDS011;8235;52.198;9.904;2023-04-07T07:36:23;17.30;;;14.40;;
16254;SDS011;8235;52.198;9.904;2023-04-07T07:38:50;15.57;;;12.80;;
16254;SDS011;8235;52.198;9.904;2023-04-07T07:41:17;16.07;;;13.43;;
16254;SDS011;8235;52.198;9.904;2023-04-07T07:43:43;14.57;;;12.90;;
16254;SDS011;8235;52.198;9.904;2023-04-07T07:46:10;16.27;;;12.93;;
16254;SDS011;8235;52.198;9.904;2023-04-07T07:48:37;15.67;;;13.40;;
16254;SDS011;8235;52.198;9.904;2023-04-07T07:51:04;15.97;;;14.10;;
16254;SDS011;8235;52.198;9.904;2023-04-07T07:53:31;14.87;;;13.27;;
16254;SDS011;8235;52.198;9.904;2023-04-07T07:55:57;13.83;;;12.33;;
16254;SDS011;8235;52.198;9.904;2023-04-07T07:58:25;15.13;;;11.83;;
16254;SDS011;8235;52.198;9.904;2023-04-07T08:00:51;14.70;;;12.30;;
16254;SDS011;8235;52.198;9.904;2023-04-07T08:03:18;14.20;;;12.53;;
16254;SDS011;8235;52.198;9.904;2023-04-07T08:05:48;14.43;;;12.93;;
16254;SDS011;8235;52.198;9.904;2023-04-07T08:08:14;13.10;;;11.73;;
16254;SDS011;8235;52.198;9.904;2023-04-07T08:10:41;13.83;;;12.37;;
16254;SDS011;8235;52.198;9.904;2023-04-07T08:13:07;13.00;;;11.70;;
16254;SDS011;8235;52.198;9.904;2023-04-07T08:15:34;13.57;;;12.13;;
16254;SDS011;8235;52.198;9.904;2023-04-07T08:18:00;14.37;;;11.93;;
16254;SDS011;8235;52.198;9.904;2023-04-07T08:20:28;13.10;;;11.77;;
16254;SDS011;8235;52.198;9.904;2023-04-07T08:22:56;14.00;;;11.90;;
16254;SDS011;8235;52.198;9.904;2023-04-07T08:25:23;14.30;;;12.80;;
16254;SDS011;8235;52.198;9.904;2023-04-07T08:27:50;12.83;;;11.47;;
16254;SDS011;8235;52.198;9.904;2023-04-07T08:30:16;12.70;;;11.13;;
16254;SDS011;8235;52.198;9.904;2023-04-07T08:32:45;13.47;;;11.57;;
16254;SDS011;8235;52.198;9.904;2023-04-07T08:35:11;12.73;;;11.43;;
16254;SDS011;8235;52.198;9.904;2023-04-07T08:37:38;12.60;;;10.67;;
16254;SDS011;8235;52.198;9.904;2023-04-07T08:40:06;11.93;;;10.50;;
16254;SDS011;8235;52.198;9.904;2023-04-07T08:42:33;12.30;;;11.00;;
16254;SDS011;8235;52.198;9.904;2023-04-07T08:45:01;12.00;;;10.03;;
16254;SDS011;8235;52.198;9.904;2023-04-07T08:47:30;12.27;;;10.97;;
16254;SDS011;8235;52.198;9.904;2023-04-07T08:49:59;12.43;;;10.37;;
16254;SDS011;8235;52.198;9.904;2023-04-07T08:52:29;11.43;;;10.17;;
16254;SDS011;8235;52.198;9.904;2023-04-07T08:54:59;14.00;;;10.90;;
16254;SDS011;8235;52.198;9.904;2023-04-07T08:57:29;10.83;;;9.53;;
16254;SDS011;8235;52.198;9.904;2023-04-07T08:59:57;11.50;;;10.30;;
16254;SDS011;8235;52.198;9.904;2023-04-07T09:02:26;10.93;;;9.77;;
16254;SDS011;8235;52.198;9.904;2023-04-07T09:04:53;10.40;;;9.00;;
16254;SDS011;8235;52.198;9.904;2023-04-07T09:07:21;11.07;;;9.80;;
16254;SDS011;8235;52.198;9.904;2023-04-07T09:09:47;10.27;;;9.13;;
16254;SDS011;8235;52.198;9.904;2023-04-07T09:12:14;9.30;;;8.40;;
16254;SDS011;8235;52.198;9.904;2023-04-07T09:14:42;14.60;;;9.07;;
16254;SDS011;8235;52.198;9.904;2023-04-07T09:17:09;9.30;;;8.27;;
16254;SDS011;8235;52.198;9.904;2023-04-07T09:19:35;9.53;;;7.27;;
16254;SDS011;8235;52.198;9.904;2023-04-07T09:22:02;9.77;;;8.77;;
16254;SDS011;8235;52.198;9.904;2023-04-07T09:24:28;9.03;;;7.83;;
16254;SDS011;8235;52.198;9.904;2023-04-07T09:27:08;9.03;;;7.43;;
16254;SDS011;8235;52.198;9.904;2023-04-07T09:29:36;9.13;;;8.00;;
16254;SDS011;8235;52.198;9.904;2023-04-07T09:32:05;8.50;;;7.53;;
16254;SDS011;8235;52.198;9.904;2023-04-07T09:34:32;10.00;;;7.60;;
16254;SDS011;8235;52.198;9.904;2023-04-07T09:37:00;8.90;;;7.80;;
16254;SDS011;8235;52.198;9.904;2023-04-07T09:39:27;9.37;;;8.40;;
16254;SDS011;8235;52.198;9.904;2023-04-07T09:41:54;9.00;;;7.20;;
16254;SDS011;8235;52.198;9.904;2023-04-07T09:44:21;10.20;;;7.90;;
16254;SDS011;8235;52.198;9.904;2023-04-07T09:46:49;7.73;;;6.93;;
16254;SDS011;8235;52.198;9.904;2023-04-07T09:49:17;8.50;;;6.80;;
16254;SDS011;8235;52.198;9.904;2023-04-07T09:51:51;8.10;;;7.27;;
16254;SDS011;8235;52.198;9.904;2023-04-07T09:54:33;7.80;;;6.93;;
16254;SDS011;8235;52.198;9.904;2023-04-07T09:57:01;8.07;;;6.63;;
16254;SDS011;8235;52.198;9.904;2023-04-07T09:59:29;8.07;;;7.20;;
16254;SDS011;8235;52.198;9.904;2023-04-07T10:01:56;8.40;;;7.47;;
16254;SDS011;8235;52.198;9.904;2023-04-07T10:04:25;8.10;;;7.17;;
16254;SDS011;8235;52.198;9.904;2023-04-07T10:06:53;8.57;;;7.63;;
16254;SDS011;8235;52.198;9.904;2023-04-07T10:09:20;8.27;;;7.23;;
16254;SDS011;8235;52.198;9.904;2023-04-07T10:11:49;8.97;;;7.13;;
16254;SDS011;8235;52.198;9.904;2023-04-07T10:14:16;9.40;;;7.17;;
16254;SDS011;8235;52.198;9.904;2023-04-07T10:16:43;9.53;;;7.63;;
16254;SDS011;8235;52.198;9.904;2023-04-07T10:19:11;8.43;;;7.30;;
16254;SDS011;8235;52.198;9.904;2023-04-07T10:21:40;9.93;;;7.63;;
16254;SDS011;8235;52.198;9.904;2023-04-07T10:24:11;8.63;;;7.57;;
16254;SDS011;8235;52.198;9.904;2023-04-07T10:26:46;8.70;;;7.80;;
16254;SDS011;8235;52.198;9.904;2023-04-07T10:29:18;7.97;;;7.17;;
16254;SDS011;8235;52.198;9.904;2023-04-07T10:31:46;8.73;;;7.17;;
16254;SDS011;8235;52.198;9.904;2023-04-07T10:34:13;8.00;;;6.57;;
16254;SDS011;8235;52.198;9.904;2023-04-07T10:39:38;8.63;;;7.17;;
16254;SDS011;8235;52.198;9.904;2023-04-07T10:42:05;8.00;;;6.90;;
16254;SDS011;8235;52.198;9.904;2023-04-07T10:44:44;10.17;;;7.97;;
16254;SDS011;8235;52.198;9.904;2023-04-07T10:47:13;8.77;;;6.87;;
16254;SDS011;8235;52.198;9.904;2023-04-07T10:49:40;10.23;;;7.00;;
16254;SDS011;8235;52.198;9.904;2023-04-07T10:52:41;7.90;;;7.10;;
16254;SDS011;8235;52.198;9.904;2023-04-07T10:58:12;9.13;;;7.03;;
16254;SDS011;8235;52.198;9.904;2023-04-07T11:00:40;8.93;;;7.13;;
16254;SDS011;8235;52.198;9.904;2023-04-07T11:03:11;10.20;;;7.57;;
16254;SDS011;8235;52.198;9.904;2023-04-07T11:05:39;9.43;;;7.67;;
16254;SDS011;8235;52.198;9.904;2023-04-07T11:08:09;9.57;;;7.50;;
16254;SDS011;8235;52.198;9.904;2023-04-07T11:10:39;8.93;;;7.43;;
16254;SDS011;8235;52.198;9.904;2023-04-07T11:13:13;8.80;;;7.43;;
16254;SDS011;8235;52.198;9.904;2023-04-07T11:15:40;10.33;;;7.43;;
16254;SDS011;8235;52.198;9.904;2023-04-07T11:18:11;10.57;;;7.13;;
16254;SDS011;8235;52.198;9.904;2023-04-07T11:20:42;10.97;;;7.10;;
16254;SDS011;8235;52.198;9.904;2023-04-07T11:23:12;9.50;;;7.50;;
16254;SDS011;8235;52.198;9.904;2023-04-07T11:25:40;7.77;;;6.63;;
16254;SDS011;8235;52.198;9.904;2023-04-07T11:28:08;9.13;;;7.43;;
16254;SDS011;8235;52.198;9.904;2023-04-07T11:30:36;10.13;;;8.20;;
16254;SDS011;8235;52.198;9.904;2023-04-07T11:33:02;9.30;;;7.67;;
16254;SDS011;8235;52.198;9.904;2023-04-07T11:35:29;10.63;;;8.10;;
16254;SDS011;8235;52.198;9.904;2023-04-07T11:37:56;11.00;;;7.80;;
16254;SDS011;8235;52.198;9.904;2023-04-07T11:40:31;9.03;;;8.03;;
16254;SDS011;8235;52.198;9.904;2023-04-07T11:42:59;9.10;;;7.47;;
16254;SDS011;8235;52.198;9.904;2023-04-07T11:45:26;12.13;;;8.17;;
16254;SDS011;8235;52.198;9.904;2023-04-07T11:47:53;9.20;;;7.77;;
16254;SDS011;8235;52.198;9.904;2023-04-07T11:53:04;9.70;;;7.67;;
16254;SDS011;8235;52.198;9.904;2023-04-07T11:55:32;9.13;;;8.20;;
16254;SDS011;8235;52.198;9.904;2023-04-07T11:58:04;10.63;;;7.80;;
16254;SDS011;8235;52.198;9.904;2023-04-07T12:00:33;10.40;;;8.47;;
16254;SDS011;8235;52.198;9.904;2023-04-07T12:03:07;9.40;;;8.30;;
16254;SDS011;8235;52.198;9.904;2023-04-07T12:05:40;10.57;;;8.07;;
16254;SDS011;8235;52.198;9.904;2023-04-07T12:08:08;8.57;;;7.70;;
16254;SDS011;8235;52.198;9.904;2023-04-07T12:10:36;10.53;;;8.00;;
16254;SDS011;8235;52.198;9.904;2023-04-07T12:13:05;11.67;;;8.13;;
16254;SDS011;8235;52.198;9.904;2023-04-07T12:15:31;14.53;;;9.03;;
16254;SDS011;8235;52.198;9.904;2023-04-07T12:17:58;8.53;;;7.63;;
16254;SDS011;8235;52.198;9.904;2023-04-07T12:20:25;8.90;;;7.97;;
16254;SDS011;8235;52.198;9.904;2023-04-07T12:22:52;10.20;;;7.97;;
16254;SDS011;8235;52.198;9.904;2023-04-07T12:25:18;10.37;;;8.50;;
16254;SDS011;8235;52.198;9.904;2023-04-07T12:27:46;9.37;;;8.30;;
16254;SDS011;8235;52.198;9.904;2023-04-07T12:30:12;10.37;;;8.17;;
16254;SDS011;8235;52.198;9.904;2023-04-07T12:32:39;10.87;;;8.10;;
16254;SDS011;8235;52.198;9.904;2023-04-07T12:35:05;11.27;;;9.10;;
16254;SDS011;8235;52.198;9.904;2023-04-07T12:37:32;12.77;;;9.07;;
16254;SDS011;8235;52.198;9.904;2023-04-07T12:39:59;11.97;;;8.13;;
16254;SDS011;8235;52.198;9.904;2023-04-07T12:42:25;10.63;;;8.87;;
16254;SDS011;8235;52.198;9.904;2023-04-07T12:44:53;14.73;;;8.93;;
16254;SDS011;8235;52.198;9.904;2023-04-07T12:47:20;10.13;;;8.40;;
16254;SDS011;8235;52.198;9.904;2023-04-07T12:49:47;10.57;;;8.93;;
16254;SDS011;8235;52.198;9.904;2023-04-07T12:52:13;11.60;;;8.53;;
16254;SDS011;8235;52.198;9.904;2023-04-07T12:54:40;11.97;;;9.57;;
16254;SDS011;8235;52.198;9.904;2023-04-07T12:57:08;9.20;;;8.07;;
16254;SDS011;8235;52.198;9.904;2023-04-07T12:59:34;9.77;;;8.33;;
16254;SDS011;8235;52.198;9.904;2023-04-07T13:02:02;9.53;;;8.37;;
16254;SDS011;8235;52.198;9.904;2023-04-07T13:04:29;9.70;;;8.13;;
16254;SDS011;8235;52.198;9.904;2023-04-07T13:06:55;11.67;;;8.03;;
16254;SDS011;8235;52.198;9.904;2023-04-07T13:09:26;10.67;;;8.57;;
16254;SDS011;8235;52.198;9.904;2023-04-07T13:11:53;9.73;;;7.63;;
16254;SDS011;8235;52.198;9.904;2023-04-07T13:14:21;11.30;;;8.07;;
16254;SDS011;8235;52.198;9.904;2023-04-07T13:16:48;9.77;;;8.00;;
16254;SDS011;8235;52.198;9.904;2023-04-07T13:19:16;9.37;;;8.27;;
16254;SDS011;8235;52.198;9.904;2023-04-07T13:21:42;9.30;;;8.30;;
16254;SDS011;8235;52.198;9.904;2023-04-07T13:24:09;10.03;;;8.43;;
16254;SDS011;8235;52.198;9.904;2023-04-07T13:26:35;9.30;;;7.20;;
16254;SDS011;8235;52.198;9.904;2023-04-07T13:29:02;10.50;;;7.30;;
16254;SDS011;8235;52.198;9.904;2023-04-07T13:31:28;11.03;;;7.53;;
16254;SDS011;8235;52.198;9.904;2023-04-07T13:33:55;7.77;;;6.93;;
16254;SDS011;8235;52.198;9.904;2023-04-07T13:36:23;10.07;;;7.57;;
16254;SDS011;8235;52.198;9.904;2023-04-07T13:38:51;9.23;;;7.10;;
16254;SDS011;8235;52.198;9.904;2023-04-07T13:41:17;9.00;;;7.37;;
16254;SDS011;8235;52.198;9.904;2023-04-07T13:43:44;7.73;;;6.63;;
16254;SDS011;8235;52.198;9.904;2023-04-07T13:46:11;8.00;;;7.03;;
16254;SDS011;8235;52.198;9.904;2023-04-07T13:48:39;7.73;;;6.93;;
16254;SDS011;8235;52.198;9.904;2023-04-07T13:51:05;7.73;;;6.77;;
16254;SDS011;8235;52.198;9.904;2023-04-07T13:53:33;8.83;;;7.37;;
16254;SDS011;8235;52.198;9.904;2023-04-07T13:55:59;7.97;;;6.83;;
16254;SDS011;8235;52.198;9.904;2023-04-07T13:58:27;7.77;;;6.97;;
16254;SDS011;8235;52.198;9.904;2023-04-07T14:00:54;8.10;;;6.90;;
16254;SDS011;8235;52.198;9.904;2023-04-07T14:03:21;8.67;;;6.10;;
16254;SDS011;8235;52.198;9.904;2023-04-07T14:05:47;6.87;;;5.90;;
16254;SDS011;8235;52.198;9.904;2023-04-07T14:08:14;8.20;;;6.33;;
16254;SDS011;8235;52.198;9.904;2023-04-07T14:10:43;8.67;;;6.17;;
16254;SDS011;8235;52.198;9.904;2023-04-07T14:13:10;6.80;;;5.73;;
16254;SDS011;8235;52.198;9.904;2023-04-07T14:15:36;7.83;;;6.20;;
16254;SDS011;8235;52.198;9.904;2023-04-07T14:18:03;6.97;;;5.50;;
16254;SDS011;8235;52.198;9.904;2023-04-07T14:20:30;7.27;;;5.70;;
16254;SDS011;8235;52.198;9.904;2023-04-07T14:22:56;6.70;;;5.40;;
16254;SDS011;8235;52.198;9.904;2023-04-07T14:25:23;7.37;;;5.40;;
16254;SDS011;8235;52.198;9.904;2023-04-07T14:27:51;8.57;;;5.70;;
16254;SDS011;8235;52.198;9.904;2023-04-07T14:30:17;7.37;;;4.87;;
16254;SDS011;8235;52.198;9.904;2023-04-07T14:32:44;7.40;;;4.57;;
16254;SDS011;8235;52.198;9.904;2023-04-07T14:35:10;7.17;;;5.53;;
16254;SDS011;8235;52.198;9.904;2023-04-07T14:37:37;6.83;;;5.37;;
16254;SDS011;8235;52.198;9.904;2023-04-07T14:40:04;5.83;;;5.23;;
16254;SDS011;8235;52.198;9.904;2023-04-07T14:42:31;5.93;;;5.33;;
16254;SDS011;8235;52.198;9.904;2023-04-07T14:44:59;7.33;;;5.60;;
16254;SDS011;8235;52.198;9.904;2023-04-07T14:47:28;7.43;;;5.43;;
16254;SDS011;8235;52.198;9.904;2023-04-07T14:49:55;7.20;;;5.23;;
16254;SDS011;8235;52.198;9.904;2023-04-07T14:52:21;6.70;;;5.30;;
16254;SDS011;8235;52.198;9.904;2023-04-07T14:54:48;6.43;;;5.33;;
16254;SDS011;8235;52.198;9.904;2023-04-07T14:57:14;6.33;;;4.80;;
16254;SDS011;8235;52.198;9.904;2023-04-07T14:59:41;6.60;;;5.13;;